sensor_id;sensor_type;location;lat;lon;timestamp;P1;durP1;ratioP1;P2;durP2;ratioP2
72053;SDS011;59918;51.280;7.950;2024-03-06T00:00:12;62.55;;;23.35;;
72053;SDS011;59918;51.280;7.950;2024-03-06T00:02:40;67.10;;;23.17;;
72053;SDS011;59918;51.280;7.950;2024-03-06T00:05:06;65.93;;;25.08;;
72053;SDS011;59918;51.280;7.950;2024-03-06T00:07:31;62.60;;;22.95;;
72053;SDS011;59918;51.280;7.950;2024-03-06T00:09:56;62.30;;;22.63;;
72053;SDS011;59918;51.280;7.950;2024-03-06T00:12:23;64.43;;;23.67;;
72053;SDS011;59918;51.280;7.950;2024-03-06T00:14:48;59.80;;;23.58;;
72053;SDS011;59918;51.280;7.950;2024-03-06T00:17:13;74.60;;;23.90;;
72053;SDS011;59918;51.280;7.950;2024-03-06T00:19:39;63.33;;;23.90;;
72053;SDS011;59918;51.280;7.950;2024-03-06T00:22:04;66.00;;;24.27;;
72053;SDS011;59918;51.280;7.950;2024-03-06T00:24:29;63.80;;;23.52;;
72053;SDS011;59918;51.280;7.950;2024-03-06T00:26:54;64.20;;;22.83;;
72053;SDS011;59918;51.280;7.950;2024-03-06T00:29:19;64.05;;;23.48;;
72053;SDS011;59918;51.280;7.950;2024-03-06T00:31:45;66.35;;;22.92;;
72053;SDS011;59918;51.280;7.950;2024-03-06T00:34:11;62.47;;;23.45;;
72053;SDS011;59918;51.280;7.950;2024-03-06T00:36:37;68.80;;;22.80;;
72053;SDS011;59918;51.280;7.950;2024-03-06T00:39:02;61.67;;;23.50;;
72053;SDS011;59918;51.280;7.950;2024-03-06T00:41:28;65.72;;;22.83;;
72053;SDS011;59918;51.280;7.950;2024-03-06T00:43:53;66.20;;;20.73;;
72053;SDS011;59918;51.280;7.950;2024-03-06T00:46:18;63.17;;;23.23;;
72053;SDS011;59918;51.280;7.950;2024-03-06T00:48:43;61.20;;;23.35;;
72053;SDS011;59918;51.280;7.950;2024-03-06T00:51:08;56.33;;;21.75;;
72053;SDS011;59918;51.280;7.950;2024-03-06T00:53:34;69.07;;;22.23;;
72053;SDS011;59918;51.280;7.950;2024-03-06T00:56:00;59.08;;;21.40;;
72053;SDS011;59918;51.280;7.950;2024-03-06T00:58:25;60.40;;;24.13;;
72053;SDS011;59918;51.280;7.950;2024-03-06T01:00:50;57.20;;;21.90;;
72053;SDS011;59918;51.280;7.950;2024-03-06T01:03:16;69.82;;;23.77;;
72053;SDS011;59918;51.280;7.950;2024-03-06T01:05:41;70.00;;;23.42;;
72053;SDS011;59918;51.280;7.950;2024-03-06T01:08:07;70.15;;;23.33;;
72053;SDS011;59918;51.280;7.950;2024-03-06T01:10:32;66.28;;;23.33;;
72053;SDS011;59918;51.280;7.950;2024-03-06T01:12:57;59.03;;;21.70;;
72053;SDS011;59918;51.280;7.950;2024-03-06T01:15:22;61.95;;;22.63;;
72053;SDS011;59918;51.280;7.950;2024-03-06T01:17:48;59.90;;;21.90;;
72053;SDS011;59918;51.280;7.950;2024-03-06T01:20:13;55.33;;;21.80;;
72053;SDS011;59918;51.280;7.950;2024-03-06T01:22:38;54.47;;;22.17;;
72053;SDS011;59918;51.280;7.950;2024-03-06T01:25:04;58.17;;;21.65;;
72053;SDS011;59918;51.280;7.950;2024-03-06T01:27:29;64.18;;;23.02;;
72053;SDS011;59918;51.280;7.950;2024-03-06T01:29:54;60.00;;;22.10;;
72053;SDS011;59918;51.280;7.950;2024-03-06T01:32:19;57.60;;;22.20;;
72053;SDS011;59918;51.280;7.950;2024-03-06T01:34:45;58.90;;;23.30;;
72053;SDS011;59918;51.280;7.950;2024-03-06T01:37:10;58.00;;;22.02;;
72053;SDS011;59918;51.280;7.950;2024-03-06T01:39:35;58.67;;;21.23;;
72053;SDS011;59918;51.280;7.950;2024-03-06T01:42:01;56.38;;;22.35;;
72053;SDS011;59918;51.280;7.950;2024-03-06T01:44:26;59.47;;;22.70;;
72053;SDS011;59918;51.280;7.950;2024-03-06T01:46:52;59.42;;;23.63;;
72053;SDS011;59918;51.280;7.950;2024-03-06T01:49:17;60.38;;;22.67;;
72053;SDS011;59918;51.280;7.950;2024-03-06T01:51:45;54.95;;;21.42;;
72053;SDS011;59918;51.280;7.950;2024-03-06T01:54:19;55.13;;;21.83;;
72053;SDS011;59918;51.280;7.950;2024-03-06T01:56:45;65.45;;;23.58;;
72053;SDS011;59918;51.280;7.950;2024-03-06T01:59:12;71.45;;;25.50;;
72053;SDS011;59918;51.280;7.950;2024-03-06T02:01:38;67.45;;;23.92;;
72053;SDS011;59918;51.280;7.950;2024-03-06T02:04:04;64.85;;;22.90;;
72053;SDS011;59918;51.280;7.950;2024-03-06T02:06:31;59.22;;;22.58;;
72053;SDS011;59918;51.280;7.950;2024-03-06T02:08:56;56.92;;;20.88;;
72053;SDS011;59918;51.280;7.950;2024-03-06T02:11:22;61.70;;;22.38;;
72053;SDS011;59918;51.280;7.950;2024-03-06T02:13:49;58.60;;;20.52;;
72053;SDS011;59918;51.280;7.950;2024-03-06T02:16:14;60.25;;;22.17;;
72053;SDS011;59918;51.280;7.950;2024-03-06T02:18:50;61.85;;;23.00;;
72053;SDS011;59918;51.280;7.950;2024-03-06T02:21:16;65.68;;;25.27;;
72053;SDS011;59918;51.280;7.950;2024-03-06T02:23:41;57.53;;;21.65;;
72053;SDS011;59918;51.280;7.950;2024-03-06T02:26:07;59.00;;;21.77;;
72053;SDS011;59918;51.280;7.950;2024-03-06T02:28:32;65.75;;;23.58;;
72053;SDS011;59918;51.280;7.950;2024-03-06T02:30:57;63.65;;;24.15;;
72053;SDS011;59918;51.280;7.950;2024-03-06T02:33:22;61.10;;;22.45;;
72053;SDS011;59918;51.280;7.950;2024-03-06T02:35:48;54.70;;;21.10;;
72053;SDS011;59918;51.280;7.950;2024-03-06T02:38:13;57.92;;;21.25;;
72053;SDS011;59918;51.280;7.950;2024-03-06T02:40:38;58.30;;;21.92;;
72053;SDS011;59918;51.280;7.950;2024-03-06T02:43:03;61.67;;;23.23;;
72053;SDS011;59918;51.280;7.950;2024-03-06T02:45:29;56.38;;;22.80;;
72053;SDS011;59918;51.280;7.950;2024-03-06T02:47:54;58.22;;;22.48;;
72053;SDS011;59918;51.280;7.950;2024-03-06T02:50:19;51.15;;;21.85;;
72053;SDS011;59918;51.280;7.950;2024-03-06T02:52:45;57.28;;;21.42;;
72053;SDS011;59918;51.280;7.950;2024-03-06T02:55:11;62.65;;;22.95;;
72053;SDS011;59918;51.280;7.950;2024-03-06T02:57:36;61.92;;;22.05;;
72053;SDS011;59918;51.280;7.950;2024-03-06T03:00:03;52.65;;;20.25;;
72053;SDS011;59918;51.280;7.950;2024-03-06T03:02:28;56.78;;;22.17;;
72053;SDS011;59918;51.280;7.950;2024-03-06T03:04:54;53.90;;;21.58;;
72053;SDS011;59918;51.280;7.950;2024-03-06T03:07:19;54.55;;;21.23;;
72053;SDS011;59918;51.280;7.950;2024-03-06T03:09:44;61.63;;;21.52;;
72053;SDS011;59918;51.280;7.950;2024-03-06T03:12:10;52.63;;;19.90;;
72053;SDS011;59918;51.280;7.950;2024-03-06T03:14:35;45.95;;;18.25;;
72053;SDS011;59918;51.280;7.950;2024-03-06T03:17:00;54.47;;;20.90;;
72053;SDS011;59918;51.280;7.950;2024-03-06T03:19:26;52.13;;;18.92;;
72053;SDS011;59918;51.280;7.950;2024-03-06T03:21:51;52.47;;;19.65;;
72053;SDS011;59918;51.280;7.950;2024-03-06T03:24:16;56.28;;;20.20;;
72053;SDS011;59918;51.280;7.950;2024-03-06T03:26:41;51.85;;;18.83;;
72053;SDS011;59918;51.280;7.950;2024-03-06T03:29:07;57.25;;;19.52;;
72053;SDS011;59918;51.280;7.950;2024-03-06T03:31:32;53.58;;;20.50;;
72053;SDS011;59918;51.280;7.950;2024-03-06T03:33:57;51.80;;;18.83;;
72053;SDS011;59918;51.280;7.950;2024-03-06T03:36:22;55.67;;;19.88;;
72053;SDS011;59918;51.280;7.950;2024-03-06T03:38:48;54.40;;;18.65;;
72053;SDS011;59918;51.280;7.950;2024-03-06T03:41:13;59.03;;;20.17;;
72053;SDS011;59918;51.280;7.950;2024-03-06T03:43:39;63.95;;;19.63;;
72053;SDS011;59918;51.280;7.950;2024-03-06T03:46:04;62.10;;;20.33;;
72053;SDS011;59918;51.280;7.950;2024-03-06T03:48:30;69.70;;;20.90;;
72053;SDS011;59918;51.280;7.950;2024-03-06T03:50:56;70.82;;;20.17;;
72053;SDS011;59918;51.280;7.950;2024-03-06T03:53:23;58.50;;;19.83;;
72053;SDS011;59918;51.280;7.950;2024-03-06T03:55:49;64.75;;;20.27;;
72053;SDS011;59918;51.280;7.950;2024-03-06T03:58:14;73.75;;;21.38;;
72053;SDS011;59918;51.280;7.950;2024-03-06T04:00:39;72.13;;;22.50;;
72053;SDS011;59918;51.280;7.950;2024-03-06T04:03:04;72.78;;;22.52;;
72053;SDS011;59918;51.280;7.950;2024-03-06T04:05:30;66.85;;;21.83;;
72053;SDS011;59918;51.280;7.950;2024-03-06T04:07:55;61.58;;;19.98;;
72053;SDS011;59918;51.280;7.950;2024-03-06T04:10:20;72.00;;;19.95;;
72053;SDS011;59918;51.280;7.950;2024-03-06T04:12:45;66.72;;;20.48;;
72053;SDS011;59918;51.280;7.950;2024-03-06T04:15:11;68.45;;;21.13;;
72053;SDS011;59918;51.280;7.950;2024-03-06T04:17:36;72.78;;;22.05;;
72053;SDS011;59918;51.280;7.950;2024-03-06T04:20:01;71.00;;;21.35;;
72053;SDS011;59918;51.280;7.950;2024-03-06T04:22:27;69.53;;;20.95;;
72053;SDS011;59918;51.280;7.950;2024-03-06T04:24:52;73.07;;;21.33;;
72053;SDS011;59918;51.280;7.950;2024-03-06T04:27:17;73.18;;;22.02;;
72053;SDS011;59918;51.280;7.950;2024-03-06T04:29:44;68.47;;;20.55;;
72053;SDS011;59918;51.280;7.950;2024-03-06T04:32:10;73.57;;;23.35;;
72053;SDS011;59918;51.280;7.950;2024-03-06T04:34:35;69.65;;;20.17;;
72053;SDS011;59918;51.280;7.950;2024-03-06T04:37:00;57.35;;;19.00;;
72053;SDS011;59918;51.280;7.950;2024-03-06T04:39:26;72.35;;;21.35;;
72053;SDS011;59918;51.280;7.950;2024-03-06T04:41:51;67.10;;;19.77;;
72053;SDS011;59918;51.280;7.950;2024-03-06T04:44:16;56.75;;;18.83;;
72053;SDS011;59918;51.280;7.950;2024-03-06T04:46:41;50.85;;;17.60;;
72053;SDS011;59918;51.280;7.950;2024-03-06T04:49:07;55.20;;;17.50;;
72053;SDS011;59918;51.280;7.950;2024-03-06T04:51:32;48.10;;;16.85;;
72053;SDS011;59918;51.280;7.950;2024-03-06T04:53:57;45.63;;;17.02;;
72053;SDS011;59918;51.280;7.950;2024-03-06T04:56:22;44.42;;;16.08;;
72053;SDS011;59918;51.280;7.950;2024-03-06T04:58:48;47.03;;;16.38;;
72053;SDS011;59918;51.280;7.950;2024-03-06T05:01:13;55.35;;;17.70;;
72053;SDS011;59918;51.280;7.950;2024-03-06T05:03:38;53.25;;;21.27;;
72053;SDS011;59918;51.280;7.950;2024-03-06T05:06:06;57.80;;;20.60;;
72053;SDS011;59918;51.280;7.950;2024-03-06T05:08:32;53.28;;;18.52;;
72053;SDS011;59918;51.280;7.950;2024-03-06T05:10:59;129.00;;;48.72;;
72053;SDS011;59918;51.280;7.950;2024-03-06T05:13:25;149.05;;;59.60;;
72053;SDS011;59918;51.280;7.950;2024-03-06T05:15:50;50.45;;;17.77;;
72053;SDS011;59918;51.280;7.950;2024-03-06T05:18:16;123.90;;;56.30;;
72053;SDS011;59918;51.280;7.950;2024-03-06T05:20:41;92.43;;;40.83;;
72053;SDS011;59918;51.280;7.950;2024-03-06T05:23:06;77.00;;;28.80;;
72053;SDS011;59918;51.280;7.950;2024-03-06T05:25:31;105.45;;;32.97;;
72053;SDS011;59918;51.280;7.950;2024-03-06T05:27:57;81.15;;;25.27;;
72053;SDS011;59918;51.280;7.950;2024-03-06T05:30:22;83.22;;;26.48;;
72053;SDS011;59918;51.280;7.950;2024-03-06T05:32:47;88.47;;;27.88;;
72053;SDS011;59918;51.280;7.950;2024-03-06T05:35:12;107.97;;;30.67;;
72053;SDS011;59918;51.280;7.950;2024-03-06T05:37:38;85.93;;;30.13;;
72053;SDS011;59918;51.280;7.950;2024-03-06T05:40:03;81.28;;;22.23;;
72053;SDS011;59918;51.280;7.950;2024-03-06T05:42:29;78.95;;;21.23;;
72053;SDS011;59918;51.280;7.950;2024-03-06T05:44:54;76.68;;;21.90;;
72053;SDS011;59918;51.280;7.950;2024-03-06T05:47:20;92.07;;;26.50;;
72053;SDS011;59918;51.280;7.950;2024-03-06T05:49:45;81.55;;;24.52;;
72053;SDS011;59918;51.280;7.950;2024-03-06T05:52:10;94.05;;;29.08;;
72053;SDS011;59918;51.280;7.950;2024-03-06T05:54:36;89.90;;;26.95;;
72053;SDS011;59918;51.280;7.950;2024-03-06T05:57:01;71.35;;;20.25;;
72053;SDS011;59918;51.280;7.950;2024-03-06T05:59:26;104.70;;;32.17;;
72053;SDS011;59918;51.280;7.950;2024-03-06T06:01:51;89.03;;;25.20;;
72053;SDS011;59918;51.280;7.950;2024-03-06T06:04:17;76.53;;;22.67;;
72053;SDS011;59918;51.280;7.950;2024-03-06T06:06:42;79.85;;;19.42;;
72053;SDS011;59918;51.280;7.950;2024-03-06T06:09:07;87.53;;;20.50;;
72053;SDS011;59918;51.280;7.950;2024-03-06T06:11:35;97.50;;;20.13;;
72053;SDS011;59918;51.280;7.950;2024-03-06T06:14:00;76.53;;;19.88;;
72053;SDS011;59918;51.280;7.950;2024-03-06T06:16:25;104.00;;;20.52;;
72053;SDS011;59918;51.280;7.950;2024-03-06T06:18:50;87.80;;;20.35;;
72053;SDS011;59918;51.280;7.950;2024-03-06T06:21:16;96.97;;;19.92;;
72053;SDS011;59918;51.280;7.950;2024-03-06T06:23:41;98.70;;;20.58;;
72053;SDS011;59918;51.280;7.950;2024-03-06T06:26:07;97.32;;;20.33;;
72053;SDS011;59918;51.280;7.950;2024-03-06T06:28:32;95.70;;;19.83;;
72053;SDS011;59918;51.280;7.950;2024-03-06T06:30:57;131.70;;;23.17;;
72053;SDS011;59918;51.280;7.950;2024-03-06T06:33:22;128.82;;;21.25;;
72053;SDS011;59918;51.280;7.950;2024-03-06T06:35:48;136.75;;;21.42;;
72053;SDS011;59918;51.280;7.950;2024-03-06T06:38:13;106.78;;;22.40;;
72053;SDS011;59918;51.280;7.950;2024-03-06T06:40:39;79.32;;;19.85;;
72053;SDS011;59918;51.280;7.950;2024-03-06T06:43:04;78.93;;;18.00;;
72053;SDS011;59918;51.280;7.950;2024-03-06T06:45:29;89.07;;;18.70;;
72053;SDS011;59918;51.280;7.950;2024-03-06T06:47:55;74.32;;;19.92;;
72053;SDS011;59918;51.280;7.950;2024-03-06T06:50:20;67.22;;;18.25;;
72053;SDS011;59918;51.280;7.950;2024-03-06T06:52:45;73.22;;;18.38;;
72053;SDS011;59918;51.280;7.950;2024-03-06T06:55:12;75.90;;;18.58;;
72053;SDS011;59918;51.280;7.950;2024-03-06T06:57:38;77.82;;;18.98;;
72053;SDS011;59918;51.280;7.950;2024-03-06T07:00:03;66.45;;;18.33;;
72053;SDS011;59918;51.280;7.950;2024-03-06T07:02:29;57.25;;;19.02;;
72053;SDS011;59918;51.280;7.950;2024-03-06T07:04:55;52.88;;;18.00;;
72053;SDS011;59918;51.280;7.950;2024-03-06T07:07:20;59.47;;;17.48;;
72053;SDS011;59918;51.280;7.950;2024-03-06T07:09:45;56.95;;;17.52;;
72053;SDS011;59918;51.280;7.950;2024-03-06T07:12:10;43.80;;;15.70;;
72053;SDS011;59918;51.280;7.950;2024-03-06T07:14:36;50.60;;;16.50;;
72053;SDS011;59918;51.280;7.950;2024-03-06T07:17:01;44.03;;;15.60;;
72053;SDS011;59918;51.280;7.950;2024-03-06T07:19:26;50.65;;;16.38;;
72053;SDS011;59918;51.280;7.950;2024-03-06T07:21:51;48.97;;;17.58;;
72053;SDS011;59918;51.280;7.950;2024-03-06T07:24:17;53.42;;;18.17;;
72053;SDS011;59918;51.280;7.950;2024-03-06T07:26:43;51.72;;;17.00;;
72053;SDS011;59918;51.280;7.950;2024-03-06T07:29:08;43.65;;;16.05;;
72053;SDS011;59918;51.280;7.950;2024-03-06T07:31:33;60.30;;;17.70;;
72053;SDS011;59918;51.280;7.950;2024-03-06T07:33:58;42.97;;;16.60;;
72053;SDS011;59918;51.280;7.950;2024-03-06T07:36:24;50.88;;;17.42;;
72053;SDS011;59918;51.280;7.950;2024-03-06T07:38:49;53.53;;;17.83;;
72053;SDS011;59918;51.280;7.950;2024-03-06T07:41:14;53.30;;;17.85;;
72053;SDS011;59918;51.280;7.950;2024-03-06T07:43:39;56.22;;;18.67;;
72053;SDS011;59918;51.280;7.950;2024-03-06T07:46:05;51.17;;;16.75;;
72053;SDS011;59918;51.280;7.950;2024-03-06T07:48:30;50.40;;;17.10;;
72053;SDS011;59918;51.280;7.950;2024-03-06T07:50:55;48.05;;;18.05;;
72053;SDS011;59918;51.280;7.950;2024-03-06T07:53:20;47.65;;;17.25;;
72053;SDS011;59918;51.280;7.950;2024-03-06T07:55:48;58.83;;;18.75;;
72053;SDS011;59918;51.280;7.950;2024-03-06T07:58:13;51.65;;;17.00;;
72053;SDS011;59918;51.280;7.950;2024-03-06T08:00:38;62.15;;;18.48;;
72053;SDS011;59918;51.280;7.950;2024-03-06T08:03:04;56.58;;;20.05;;
72053;SDS011;59918;51.280;7.950;2024-03-06T08:05:29;48.88;;;18.25;;
72053;SDS011;59918;51.280;7.950;2024-03-06T08:07:54;54.72;;;18.02;;
72053;SDS011;59918;51.280;7.950;2024-03-06T08:10:20;58.70;;;18.58;;
72053;SDS011;59918;51.280;7.950;2024-03-06T08:12:45;54.30;;;18.90;;
72053;SDS011;59918;51.280;7.950;2024-03-06T08:15:11;61.17;;;21.08;;
72053;SDS011;59918;51.280;7.950;2024-03-06T08:17:41;52.17;;;18.98;;
72053;SDS011;59918;51.280;7.950;2024-03-06T08:20:07;47.88;;;17.30;;
72053;SDS011;59918;51.280;7.950;2024-03-06T08:22:40;38.60;;;17.25;;
72053;SDS011;59918;51.280;7.950;2024-03-06T08:25:06;45.42;;;19.20;;
72053;SDS011;59918;51.280;7.950;2024-03-06T08:27:36;45.35;;;18.73;;
72053;SDS011;59918;51.280;7.950;2024-03-06T08:30:05;41.15;;;18.45;;
72053;SDS011;59918;51.280;7.950;2024-03-06T08:32:32;43.40;;;18.00;;
72053;SDS011;59918;51.280;7.950;2024-03-06T08:34:58;39.38;;;17.90;;
72053;SDS011;59918;51.280;7.950;2024-03-06T08:37:23;40.33;;;19.33;;
72053;SDS011;59918;51.280;7.950;2024-03-06T08:39:48;43.50;;;19.20;;
72053;SDS011;59918;51.280;7.950;2024-03-06T08:42:13;40.28;;;18.52;;
72053;SDS011;59918;51.280;7.950;2024-03-06T08:44:39;40.28;;;18.83;;
72053;SDS011;59918;51.280;7.950;2024-03-06T08:47:04;34.92;;;16.63;;
72053;SDS011;59918;51.280;7.950;2024-03-06T08:49:29;38.30;;;18.35;;
72053;SDS011;59918;51.280;7.950;2024-03-06T08:51:54;35.83;;;18.00;;
72053;SDS011;59918;51.280;7.950;2024-03-06T08:54:20;32.45;;;16.67;;
72053;SDS011;59918;51.280;7.950;2024-03-06T08:56:45;30.95;;;15.75;;
72053;SDS011;59918;51.280;7.950;2024-03-06T08:59:10;29.05;;;15.90;;
72053;SDS011;59918;51.280;7.950;2024-03-06T09:01:35;28.10;;;15.52;;
72053;SDS011;59918;51.280;7.950;2024-03-06T09:04:01;28.60;;;15.02;;
72053;SDS011;59918;51.280;7.950;2024-03-06T09:06:26;28.30;;;15.02;;
72053;SDS011;59918;51.280;7.950;2024-03-06T09:08:51;30.40;;;15.65;;
72053;SDS011;59918;51.280;7.950;2024-03-06T09:11:16;30.25;;;14.95;;
72053;SDS011;59918;51.280;7.950;2024-03-06T09:13:42;27.50;;;14.27;;
72053;SDS011;59918;51.280;7.950;2024-03-06T09:16:07;26.83;;;15.10;;
72053;SDS011;59918;51.280;7.950;2024-03-06T09:18:32;24.38;;;13.80;;
72053;SDS011;59918;51.280;7.950;2024-03-06T09:20:57;31.73;;;18.85;;
72053;SDS011;59918;51.280;7.950;2024-03-06T09:23:22;29.88;;;16.17;;
72053;SDS011;59918;51.280;7.950;2024-03-06T09:25:48;35.20;;;18.23;;
72053;SDS011;59918;51.280;7.950;2024-03-06T09:28:13;29.98;;;16.30;;
72053;SDS011;59918;51.280;7.950;2024-03-06T09:30:38;33.90;;;17.85;;
72053;SDS011;59918;51.280;7.950;2024-03-06T09:33:04;30.13;;;17.13;;
72053;SDS011;59918;51.280;7.950;2024-03-06T09:35:29;28.02;;;14.90;;
72053;SDS011;59918;51.280;7.950;2024-03-06T09:37:54;27.42;;;15.38;;
72053;SDS011;59918;51.280;7.950;2024-03-06T09:40:20;27.27;;;16.05;;
72053;SDS011;59918;51.280;7.950;2024-03-06T09:42:47;28.85;;;15.48;;
72053;SDS011;59918;51.280;7.950;2024-03-06T09:45:13;34.35;;;17.10;;
72053;SDS011;59918;51.280;7.950;2024-03-06T09:47:38;40.67;;;19.55;;
72053;SDS011;59918;51.280;7.950;2024-03-06T09:50:06;48.17;;;21.95;;
72053;SDS011;59918;51.280;7.950;2024-03-06T09:52:34;45.47;;;25.65;;
72053;SDS011;59918;51.280;7.950;2024-03-06T09:55:01;45.92;;;26.73;;
72053;SDS011;59918;51.280;7.950;2024-03-06T09:57:26;36.78;;;20.95;;
72053;SDS011;59918;51.280;7.950;2024-03-06T09:59:51;38.55;;;21.85;;
72053;SDS011;59918;51.280;7.950;2024-03-06T10:02:38;36.58;;;20.58;;
72053;SDS011;59918;51.280;7.950;2024-03-06T10:05:03;30.48;;;17.98;;
72053;SDS011;59918;51.280;7.950;2024-03-06T10:07:29;35.65;;;18.52;;
72053;SDS011;59918;51.280;7.950;2024-03-06T10:09:55;40.33;;;20.65;;
72053;SDS011;59918;51.280;7.950;2024-03-06T10:12:20;37.53;;;18.60;;
72053;SDS011;59918;51.280;7.950;2024-03-06T10:14:50;38.20;;;20.75;;
72053;SDS011;59918;51.280;7.950;2024-03-06T10:17:24;33.28;;;21.17;;
72053;SDS011;59918;51.280;7.950;2024-03-06T10:19:49;35.38;;;20.63;;
72053;SDS011;59918;51.280;7.950;2024-03-06T10:22:14;37.63;;;20.05;;
72053;SDS011;59918;51.280;7.950;2024-03-06T10:24:40;32.38;;;19.27;;
72053;SDS011;59918;51.280;7.950;2024-03-06T10:27:05;32.38;;;19.55;;
72053;SDS011;59918;51.280;7.950;2024-03-06T10:29:30;33.33;;;20.88;;
72053;SDS011;59918;51.280;7.950;2024-03-06T10:31:57;35.28;;;21.35;;
72053;SDS011;59918;51.280;7.950;2024-03-06T10:34:27;35.63;;;21.40;;
72053;SDS011;59918;51.280;7.950;2024-03-06T10:37:02;36.25;;;21.45;;
72053;SDS011;59918;51.280;7.950;2024-03-06T10:39:27;24.83;;;17.35;;
72053;SDS011;59918;51.280;7.950;2024-03-06T10:41:55;23.77;;;16.00;;
72053;SDS011;59918;51.280;7.950;2024-03-06T10:44:25;28.45;;;18.30;;
72053;SDS011;59918;51.280;7.950;2024-03-06T10:46:55;25.48;;;16.35;;
72053;SDS011;59918;51.280;7.950;2024-03-06T10:49:25;19.70;;;13.30;;
72053;SDS011;59918;51.280;7.950;2024-03-06T10:51:51;23.13;;;15.00;;
72053;SDS011;59918;51.280;7.950;2024-03-06T10:54:17;22.00;;;14.43;;
72053;SDS011;59918;51.280;7.950;2024-03-06T10:56:44;20.85;;;14.50;;
72053;SDS011;59918;51.280;7.950;2024-03-06T10:59:10;23.90;;;16.70;;
72053;SDS011;59918;51.280;7.950;2024-03-06T11:01:36;25.90;;;17.50;;
72053;SDS011;59918;51.280;7.950;2024-03-06T11:04:02;24.80;;;17.58;;
72053;SDS011;59918;51.280;7.950;2024-03-06T11:06:30;25.42;;;17.42;;
72053;SDS011;59918;51.280;7.950;2024-03-06T11:08:56;27.55;;;18.10;;
72053;SDS011;59918;51.280;7.950;2024-03-06T11:11:21;24.67;;;18.05;;
72053;SDS011;59918;51.280;7.950;2024-03-06T11:13:47;24.98;;;17.80;;
72053;SDS011;59918;51.280;7.950;2024-03-06T11:16:13;25.90;;;18.00;;
72053;SDS011;59918;51.280;7.950;2024-03-06T11:23:33;16.13;;;11.70;;
72053;SDS011;59918;51.280;7.950;2024-03-06T11:26:02;17.13;;;12.52;;
72053;SDS011;59918;51.280;7.950;2024-03-06T11:28:29;14.57;;;10.60;;
72053;SDS011;59918;51.280;7.950;2024-03-06T11:33:29;13.38;;;9.90;;
72053;SDS011;59918;51.280;7.950;2024-03-06T11:36:16;9.65;;;8.38;;
72053;SDS011;59918;51.280;7.950;2024-03-06T11:38:41;11.20;;;8.15;;
72053;SDS011;59918;51.280;7.950;2024-03-06T11:41:07;9.95;;;8.32;;
72053;SDS011;59918;51.280;7.950;2024-03-06T11:43:33;10.05;;;8.18;;
72053;SDS011;59918;51.280;7.950;2024-03-06T11:46:07;13.65;;;9.98;;
72053;SDS011;59918;51.280;7.950;2024-03-06T11:48:38;13.00;;;8.35;;
72053;SDS011;59918;51.280;7.950;2024-03-06T11:51:03;9.98;;;8.00;;
72053;SDS011;59918;51.280;7.950;2024-03-06T11:53:29;10.90;;;9.00;;
72053;SDS011;59918;51.280;7.950;2024-03-06T11:55:55;10.00;;;8.93;;
72053;SDS011;59918;51.280;7.950;2024-03-06T11:58:20;13.13;;;9.98;;
72053;SDS011;59918;51.280;7.950;2024-03-06T12:00:45;10.77;;;9.15;;
72053;SDS011;59918;51.280;7.950;2024-03-06T12:03:12;10.63;;;9.38;;
72053;SDS011;59918;51.280;7.950;2024-03-06T12:05:37;12.05;;;10.20;;
72053;SDS011;59918;51.280;7.950;2024-03-06T12:08:03;9.07;;;8.15;;
72053;SDS011;59918;51.280;7.950;2024-03-06T12:10:31;9.93;;;7.65;;
72053;SDS011;59918;51.280;7.950;2024-03-06T12:13:01;9.05;;;7.70;;
72053;SDS011;59918;51.280;7.950;2024-03-06T12:15:26;11.32;;;8.35;;
72053;SDS011;59918;51.280;7.950;2024-03-06T12:17:52;9.05;;;8.13;;
72053;SDS011;59918;51.280;7.950;2024-03-06T12:20:17;11.05;;;9.07;;
72053;SDS011;59918;51.280;7.950;2024-03-06T12:22:44;10.05;;;7.88;;
72053;SDS011;59918;51.280;7.950;2024-03-06T12:25:22;9.32;;;7.85;;
72053;SDS011;59918;51.280;7.950;2024-03-06T12:27:49;6.70;;;6.10;;
72053;SDS011;59918;51.280;7.950;2024-03-06T12:30:19;6.72;;;6.03;;
72053;SDS011;59918;51.280;7.950;2024-03-06T12:32:44;7.00;;;6.22;;
72053;SDS011;59918;51.280;7.950;2024-03-06T12:35:10;8.13;;;6.80;;
72053;SDS011;59918;51.280;7.950;2024-03-06T12:37:35;8.38;;;6.22;;
72053;SDS011;59918;51.280;7.950;2024-03-06T12:40:01;7.78;;;7.03;;
72053;SDS011;59918;51.280;7.950;2024-03-06T12:42:27;13.35;;;10.23;;
72053;SDS011;59918;51.280;7.950;2024-03-06T12:44:52;14.45;;;11.43;;
72053;SDS011;59918;51.280;7.950;2024-03-06T12:47:18;15.00;;;12.27;;
72053;SDS011;59918;51.280;7.950;2024-03-06T12:49:43;12.75;;;10.50;;
72053;SDS011;59918;51.280;7.950;2024-03-06T12:52:08;15.02;;;10.07;;
72053;SDS011;59918;51.280;7.950;2024-03-06T12:54:34;12.40;;;8.40;;
72053;SDS011;59918;51.280;7.950;2024-03-06T12:56:59;12.02;;;9.02;;
72053;SDS011;59918;51.280;7.950;2024-03-06T12:59:24;9.05;;;7.90;;
72053;SDS011;59918;51.280;7.950;2024-03-06T13:01:49;13.98;;;11.52;;
72053;SDS011;59918;51.280;7.950;2024-03-06T13:04:15;14.38;;;10.93;;
72053;SDS011;59918;51.280;7.950;2024-03-06T13:06:40;24.73;;;18.40;;
72053;SDS011;59918;51.280;7.950;2024-03-06T13:09:05;27.05;;;18.92;;
72053;SDS011;59918;51.280;7.950;2024-03-06T13:11:31;28.38;;;19.05;;
72053;SDS011;59918;51.280;7.950;2024-03-06T13:13:56;24.20;;;18.33;;
72053;SDS011;59918;51.280;7.950;2024-03-06T13:16:24;24.58;;;18.40;;
72053;SDS011;59918;51.280;7.950;2024-03-06T13:18:51;26.05;;;17.73;;
72053;SDS011;59918;51.280;7.950;2024-03-06T13:21:17;23.92;;;16.52;;
72053;SDS011;59918;51.280;7.950;2024-03-06T13:23:42;27.38;;;19.27;;
72053;SDS011;59918;51.280;7.950;2024-03-06T13:26:07;66.63;;;33.15;;
72053;SDS011;59918;51.280;7.950;2024-03-06T13:28:32;24.42;;;18.00;;
72053;SDS011;59918;51.280;7.950;2024-03-06T13:30:58;26.92;;;18.42;;
72053;SDS011;59918;51.280;7.950;2024-03-06T13:33:23;25.27;;;17.15;;
72053;SDS011;59918;51.280;7.950;2024-03-06T13:35:48;25.17;;;17.27;;
72053;SDS011;59918;51.280;7.950;2024-03-06T13:38:14;27.08;;;17.65;;
72053;SDS011;59918;51.280;7.950;2024-03-06T13:40:39;26.50;;;17.25;;
72053;SDS011;59918;51.280;7.950;2024-03-06T13:43:04;27.75;;;16.52;;
72053;SDS011;59918;51.280;7.950;2024-03-06T13:45:30;29.83;;;18.40;;
72053;SDS011;59918;51.280;7.950;2024-03-06T13:47:55;26.13;;;17.90;;
72053;SDS011;59918;51.280;7.950;2024-03-06T13:50:20;30.88;;;19.98;;
72053;SDS011;59918;51.280;7.950;2024-03-06T13:52:46;32.67;;;21.45;;
72053;SDS011;59918;51.280;7.950;2024-03-06T13:55:11;34.45;;;22.85;;
72053;SDS011;59918;51.280;7.950;2024-03-06T13:57:37;43.45;;;27.20;;
72053;SDS011;59918;51.280;7.950;2024-03-06T14:00:03;41.95;;;27.70;;
72053;SDS011;59918;51.280;7.950;2024-03-06T14:02:30;39.25;;;27.98;;
72053;SDS011;59918;51.280;7.950;2024-03-06T14:04:56;44.72;;;29.30;;
72053;SDS011;59918;51.280;7.950;2024-03-06T14:07:21;42.53;;;29.73;;
72053;SDS011;59918;51.280;7.950;2024-03-06T14:09:47;45.85;;;30.52;;
72053;SDS011;59918;51.280;7.950;2024-03-06T14:12:12;45.72;;;30.38;;
72053;SDS011;59918;51.280;7.950;2024-03-06T14:14:37;42.72;;;30.30;;
72053;SDS011;59918;51.280;7.950;2024-03-06T14:17:02;46.33;;;30.40;;
72053;SDS011;59918;51.280;7.950;2024-03-06T14:19:28;43.67;;;29.92;;
72053;SDS011;59918;51.280;7.950;2024-03-06T14:21:53;47.83;;;32.50;;